Terminal Aerodrome Forecast
Issued by NWS

Home | Current Version | Previous Version | Text Only | Print | Product List | Glossary On
Versions: 1 2 3 4 5 6 7 8 9 10 11 12 13 14
000
FTUS42 KILM 251317 AAA
TAFCRE
TAF AMD
KCRE 251317Z 2513/2612 20006KT P6SM BKN050
     FM251700 16011KT P6SM SCT050 BKN120
     FM260100 15005KT P6SM SCT250
     FM260600 15005KT P6SM BKN100
     FM260900 15004KT P6SM SCT250=

USA.gov is the U.S. government's official web portal to all federal, state and local government web resources and services.